createdAt,value
2022-11-24T00:01:08.895Z,14.18
2022-11-24T00:03:56.785Z,8.73
2022-11-24T00:06:39.829Z,11.15
2022-11-24T00:09:22.787Z,11.60
2022-11-24T00:12:06.030Z,9.43
2022-11-24T00:14:49.021Z,6.80
2022-11-24T00:17:32.844Z,7.68
2022-11-24T00:20:17.954Z,7.70
2022-11-24T00:23:01.580Z,7.55
2022-11-24T00:25:44.610Z,10.33
2022-11-24T00:28:27.626Z,7.85
2022-11-24T00:31:17.730Z,7.32
2022-11-24T00:34:02.736Z,6.13
2022-11-24T00:36:47.084Z,5.95
2022-11-24T00:39:30.084Z,5.18
2022-11-24T00:42:14.287Z,4.93
2022-11-24T00:44:57.234Z,3.67
2022-11-24T00:47:40.146Z,4.55
2022-11-24T00:50:23.150Z,4.72
2022-11-24T00:53:07.518Z,3.80
2022-11-24T00:55:50.993Z,2.92
2022-11-24T00:58:34.767Z,3.10
2022-11-24T01:01:20.649Z,2.73
2022-11-24T01:04:03.773Z,2.60
2022-11-24T01:06:46.728Z,2.65
2022-11-24T01:09:31.106Z,2.75
2022-11-24T01:12:14.033Z,2.63
2022-11-24T01:14:57.155Z,2.65
2022-11-24T01:17:40.171Z,2.10
2022-11-24T01:20:23.248Z,2.50
2022-11-24T01:23:06.246Z,2.45
2022-11-24T01:25:50.645Z,2.60
2022-11-24T01:28:33.649Z,2.28
2022-11-24T01:31:17.613Z,2.55
2022-11-24T01:34:00.679Z,2.30
2022-11-24T01:36:43.677Z,2.13
2022-11-24T01:39:26.574Z,2.17
2022-11-24T01:42:10.953Z,2.67
2022-11-24T01:45:31.976Z,2.22
2022-11-24T01:48:25.968Z,2.35
2022-11-24T01:51:16.119Z,2.50
2022-11-24T01:54:03.054Z,2.70
2022-11-24T01:56:52.421Z,3.30
2022-11-24T01:59:37.453Z,3.00
2022-11-24T02:02:21.564Z,3.17
2022-11-24T02:05:09.249Z,2.70
2022-11-24T02:07:54.427Z,2.78
2022-11-24T02:10:38.578Z,2.42
2022-11-24T02:13:22.749Z,2.50
2022-11-24T02:16:09.726Z,3.83
2022-11-24T02:18:52.998Z,8.13
2022-11-24T02:21:36.026Z,4.70
2022-11-24T02:24:26.270Z,2.70
2022-11-24T02:27:11.283Z,2.15
2022-11-24T02:29:54.391Z,1.65
2022-11-24T02:32:41.557Z,1.70
2022-11-24T02:35:24.586Z,1.65
2022-11-24T02:38:07.588Z,1.80
2022-11-24T02:40:50.873Z,2.10
2022-11-24T02:43:39.885Z,2.03
2022-11-24T02:46:23.010Z,1.95
2022-11-24T02:49:06.031Z,1.52
2022-11-24T02:51:49.145Z,1.90
2022-11-24T02:54:32.467Z,1.65
2022-11-24T02:57:16.368Z,2.07
2022-11-24T03:00:00.812Z,2.00
2022-11-24T03:02:43.762Z,1.92
2022-11-24T03:05:27.422Z,1.88
2022-11-24T03:08:10.402Z,1.83
2022-11-24T03:10:53.344Z,1.58
2022-11-24T03:13:36.248Z,2.30
2022-11-24T03:16:20.899Z,1.83
2022-11-24T03:19:04.811Z,1.60
2022-11-24T03:21:47.761Z,1.40
2022-11-24T03:24:30.983Z,1.80
2022-11-24T03:27:14.577Z,1.90
2022-11-24T03:29:57.547Z,2.25
2022-11-24T03:32:42.639Z,2.20
2022-11-24T03:35:26.010Z,1.60
2022-11-24T03:38:09.047Z,2.08
2022-11-24T03:40:52.331Z,1.85
2022-11-24T03:43:40.406Z,2.20
2022-11-24T03:46:26.360Z,1.80
2022-11-24T03:49:10.953Z,2.00
2022-11-24T03:51:53.889Z,2.08
2022-11-24T03:54:36.846Z,1.98
2022-11-24T03:57:19.949Z,1.90
2022-11-24T04:00:04.900Z,1.67
2022-11-24T04:02:48.706Z,1.70
2022-11-24T04:05:36.349Z,1.33
2022-11-24T04:08:19.801Z,1.83
2022-11-24T04:11:02.801Z,2.17
2022-11-24T04:13:47.732Z,5.40
2022-11-24T04:16:30.790Z,5.10
2022-11-24T04:19:13.760Z,3.97
2022-11-24T04:21:58.122Z,3.38
2022-11-24T04:24:41.100Z,3.10
2022-11-24T04:27:24.055Z,2.50
2022-11-24T04:30:08.587Z,2.00
2022-11-24T04:35:34.620Z,1.58
2022-11-24T04:39:25.368Z,2.00
2022-11-24T04:41:21.935Z,2.30
2022-11-24T04:44:04.976Z,2.75
2022-11-24T04:46:48.072Z,2.22
2022-11-24T04:49:31.407Z,2.17
2022-11-24T04:52:14.400Z,2.40
2022-11-24T04:54:58.743Z,2.28
2022-11-24T04:57:41.740Z,2.13
2022-11-24T05:00:24.686Z,2.13
2022-11-24T05:03:07.648Z,2.05
2022-11-24T05:05:50.954Z,2.00
2022-11-24T05:08:33.943Z,2.42
2022-11-24T05:11:18.670Z,2.13
2022-11-24T05:14:02.026Z,2.40
2022-11-24T05:16:45.048Z,2.40
2022-11-24T05:19:31.229Z,2.28
2022-11-24T05:22:15.417Z,2.05
2022-11-24T05:24:58.597Z,2.58
2022-11-24T05:27:42.962Z,2.50
2022-11-24T05:30:25.889Z,2.17
2022-11-24T05:33:11.587Z,2.13
2022-11-24T05:35:54.539Z,2.35
2022-11-24T05:38:37.495Z,1.80
2022-11-24T05:41:20.438Z,1.63
2022-11-24T05:44:04.854Z,2.33
2022-11-24T05:46:47.894Z,2.60
2022-11-24T05:49:30.905Z,2.10
2022-11-24T05:52:13.962Z,1.73
2022-11-24T05:54:56.968Z,1.58
2022-11-24T05:57:39.944Z,1.77
2022-11-24T06:00:24.319Z,2.03
2022-11-24T06:03:07.424Z,2.58
2022-11-24T06:05:50.497Z,1.63
2022-11-24T06:08:33.422Z,1.58
2022-11-24T06:11:19.077Z,1.70
2022-11-24T06:14:04.663Z,1.80
2022-11-24T06:16:51.441Z,1.45
2022-11-24T06:22:24.611Z,1.20
2022-11-24T06:25:09.321Z,1.45
2022-11-24T06:27:52.295Z,1.70
2022-11-24T06:30:35.195Z,2.00
2022-11-24T06:33:19.638Z,2.10
2022-11-24T06:38:46.499Z,2.40
2022-11-24T06:41:29.664Z,2.40
2022-11-24T06:44:12.657Z,2.45
2022-11-24T06:46:55.677Z,2.22
2022-11-24T06:49:39.969Z,2.60
2022-11-24T06:52:22.929Z,2.58
2022-11-24T06:55:06.759Z,2.10
2022-11-24T06:57:49.733Z,1.73
2022-11-24T07:00:32.729Z,1.55
2022-11-24T07:03:19.052Z,1.10
2022-11-24T07:06:03.494Z,1.25
2022-11-24T07:08:46.685Z,1.65
2022-11-24T07:11:29.667Z,1.10
2022-11-24T07:14:12.763Z,1.40
2022-11-24T07:16:55.784Z,1.20
2022-11-24T07:19:38.770Z,1.15
2022-11-24T07:22:23.259Z,2.17
2022-11-24T07:27:57.111Z,1.38
2022-11-24T07:30:40.057Z,1.40
2022-11-24T07:33:25.285Z,1.23
2022-11-24T07:36:10.018Z,0.80
2022-11-24T07:38:54.371Z,1.42
2022-11-24T07:41:37.639Z,0.80
2022-11-24T07:44:20.547Z,1.40
2022-11-24T07:47:03.621Z,1.45
2022-11-24T07:49:46.579Z,2.92
2022-11-24T07:52:29.556Z,2.00
2022-11-24T07:55:13.891Z,1.80
2022-11-24T07:58:00.495Z,1.73
2022-11-24T08:00:43.474Z,1.88
2022-11-24T08:03:26.845Z,1.80
2022-11-24T08:06:28.992Z,2.53
2022-11-24T08:09:13.065Z,2.00
2022-11-24T08:11:57.420Z,1.67
2022-11-24T08:14:40.325Z,2.70
2022-11-24T08:17:23.313Z,2.50
2022-11-24T08:20:07.433Z,1.90
2022-11-24T08:22:50.606Z,2.00
2022-11-24T08:25:33.643Z,2.30
2022-11-24T08:28:17.999Z,1.75
2022-11-24T08:31:05.241Z,2.15
2022-11-24T08:33:48.796Z,2.80
2022-11-24T08:36:32.279Z,2.13
2022-11-24T08:39:15.224Z,2.42
2022-11-24T08:41:58.430Z,2.92
2022-11-24T08:44:43.086Z,2.80
2022-11-24T08:47:26.074Z,3.25
2022-11-24T08:50:09.951Z,2.70
2022-11-24T08:52:53.721Z,3.60
2022-11-24T08:55:36.641Z,3.43
2022-11-24T08:58:19.677Z,3.42
2022-11-24T09:01:08.267Z,3.35
2022-11-24T09:03:52.204Z,3.13
2022-11-24T09:06:35.272Z,3.42
2022-11-24T09:09:18.286Z,2.90
2022-11-24T09:12:01.325Z,2.53
2022-11-24T09:14:44.304Z,2.60
2022-11-24T09:17:28.669Z,2.88
2022-11-24T09:20:11.838Z,2.90
2022-11-24T09:22:54.760Z,3.90
2022-11-24T09:25:37.892Z,4.90
2022-11-24T09:28:20.899Z,3.50
2022-11-24T09:31:04.932Z,3.33
2022-11-24T09:33:49.379Z,5.20
2022-11-24T09:36:32.601Z,4.80
2022-11-24T09:39:15.511Z,3.63
2022-11-24T09:42:08.603Z,4.18
2022-11-24T09:45:48.863Z,4.45
2022-11-24T09:48:30.563Z,4.13
2022-11-24T09:51:16.579Z,4.78
2022-11-24T09:54:03.737Z,3.85
2022-11-24T09:56:48.021Z,3.88
2022-11-24T09:59:31.335Z,4.70
2022-11-24T10:02:14.985Z,5.38
2022-11-24T10:04:58.038Z,8.00
2022-11-24T10:07:49.652Z,6.53
2022-11-24T10:10:42.032Z,5.35
2022-11-24T10:13:49.944Z,5.40
2022-11-24T10:16:46.526Z,5.78
2022-11-24T10:19:40.445Z,5.55
2022-11-24T10:22:37.913Z,5.55
2022-11-24T10:25:27.027Z,5.50
2022-11-24T10:28:13.786Z,6.20
2022-11-24T10:31:11.390Z,5.13
2022-11-24T10:33:54.374Z,5.78
2022-11-24T10:36:44.972Z,7.10
2022-11-24T10:39:32.560Z,5.00
2022-11-24T10:42:22.655Z,6.18
2022-11-24T10:45:12.766Z,4.50
2022-11-24T10:47:55.721Z,5.20
2022-11-24T10:50:41.795Z,4.88
2022-11-24T10:53:29.095Z,4.95
2022-11-24T10:56:12.050Z,4.20
2022-11-24T10:58:56.377Z,4.50
2022-11-24T11:01:39.456Z,4.43
2022-11-24T11:04:26.304Z,4.38
2022-11-24T11:07:28.018Z,4.80
2022-11-24T11:10:20.577Z,5.72
2022-11-24T11:13:25.699Z,5.07
2022-11-24T11:16:27.464Z,4.55
2022-11-24T11:19:50.084Z,4.20
2022-11-24T11:22:37.180Z,3.28
2022-11-24T11:25:23.250Z,3.80
2022-11-24T11:28:22.975Z,3.97
2022-11-24T11:31:17.908Z,3.70
2022-11-24T11:34:23.749Z,3.55
2022-11-24T11:37:14.693Z,4.05
2022-11-24T11:39:59.088Z,3.53
2022-11-24T11:43:01.821Z,4.35
2022-11-24T11:45:47.701Z,3.90
2022-11-24T11:48:42.268Z,4.35
2022-11-24T11:51:48.616Z,4.75
2022-11-24T11:54:45.967Z,3.85
2022-11-24T11:57:39.085Z,4.00
2022-11-24T12:00:22.966Z,4.60
2022-11-24T12:03:31.210Z,4.50
2022-11-24T12:06:29.127Z,4.13
2022-11-24T12:09:26.121Z,3.45
2022-11-24T12:12:40.789Z,4.65
2022-11-24T12:15:32.426Z,4.60
2022-11-24T12:18:58.746Z,5.72
2022-11-24T12:21:38.014Z,3.58
2022-11-24T12:24:35.804Z,4.50
2022-11-24T12:27:29.485Z,3.50
2022-11-24T12:30:14.030Z,4.50
2022-11-24T12:36:07.791Z,3.10
2022-11-24T12:39:01.285Z,2.85
2022-11-24T12:41:59.771Z,3.33
2022-11-24T12:45:13.117Z,4.53
2022-11-24T12:48:14.957Z,3.78
2022-11-24T12:51:00.031Z,3.53
2022-11-24T12:53:45.704Z,3.40
2022-11-24T12:56:36.898Z,3.50
2022-11-24T12:59:31.643Z,4.00
2022-11-24T13:02:25.559Z,4.28
2022-11-24T13:05:21.087Z,3.60
2022-11-24T13:08:06.415Z,3.65
2022-11-24T13:10:57.982Z,3.33
2022-11-24T13:13:59.012Z,2.90
2022-11-24T13:20:17.221Z,2.10
2022-11-24T13:23:14.942Z,2.00
2022-11-24T13:26:16.383Z,1.10
2022-11-24T13:29:09.275Z,1.15
2022-11-24T13:32:34.381Z,1.02
2022-11-24T13:35:19.043Z,0.98
2022-11-24T13:40:59.815Z,0.75
2022-11-24T13:44:20.742Z,1.25
2022-11-24T13:49:50.373Z,0.60
2022-11-24T13:52:45.220Z,0.68
2022-11-24T13:55:35.764Z,0.70
2022-11-24T13:58:32.538Z,0.50
2022-11-24T14:01:20.430Z,0.68
2022-11-24T14:04:33.554Z,0.45
2022-11-24T14:07:17.978Z,0.60
2022-11-24T14:10:03.212Z,0.50
2022-11-24T14:12:46.119Z,0.40
2022-11-24T14:15:34.252Z,0.40
2022-11-24T14:18:23.209Z,0.40
2022-11-24T14:21:23.379Z,0.50
2022-11-24T14:24:13.625Z,0.43
2022-11-24T14:26:58.020Z,0.60
2022-11-24T14:29:54.518Z,0.70
2022-11-24T14:32:38.017Z,1.20
2022-11-24T14:35:25.257Z,2.03
2022-11-24T14:38:12.320Z,1.48
2022-11-24T14:40:56.732Z,2.95
2022-11-24T14:43:41.106Z,1.98
2022-11-24T14:46:24.086Z,1.60
2022-11-24T14:49:07.337Z,2.42
2022-11-24T14:51:56.770Z,0.95
2022-11-24T14:54:47.896Z,1.10
2022-11-24T14:57:33.462Z,0.70
2022-11-24T15:04:54.310Z,0.80
2022-11-24T15:07:30.554Z,0.60
2022-11-24T15:10:26.647Z,0.30
2022-11-24T15:13:18.664Z,0.47
2022-11-24T15:16:04.928Z,0.57
2022-11-24T15:18:50.022Z,0.60
2022-11-24T15:21:34.127Z,0.63
2022-11-24T15:24:18.664Z,0.95
2022-11-24T15:27:01.837Z,0.40
2022-11-24T15:29:44.843Z,0.30
2022-11-24T15:32:29.131Z,0.50
2022-11-24T15:35:13.115Z,4.45
2022-11-24T15:37:56.157Z,3.05
2022-11-24T15:40:39.366Z,1.40
2022-11-24T15:43:29.614Z,1.20
2022-11-24T15:46:12.817Z,1.90
2022-11-24T15:48:57.492Z,1.20
2022-11-24T15:54:27.669Z,2.88
2022-11-24T15:57:11.914Z,1.50
2022-11-24T15:59:54.882Z,2.40
2022-11-24T16:02:37.962Z,5.15
2022-11-24T16:05:22.337Z,2.72
2022-11-24T16:08:05.775Z,1.58
2022-11-24T16:10:48.933Z,1.30
2022-11-24T16:13:32.171Z,0.70
2022-11-24T16:16:16.470Z,0.40
2022-11-24T16:18:59.682Z,0.50
2022-11-24T16:21:44.057Z,0.63
2022-11-24T16:24:27.007Z,0.57
2022-11-24T16:27:10.378Z,0.60
2022-11-24T16:29:53.331Z,0.80
2022-11-24T16:32:37.314Z,0.80
2022-11-24T16:35:20.351Z,0.80
2022-11-24T16:38:04.740Z,0.70
2022-11-24T16:40:52.491Z,0.65
2022-11-24T16:43:35.459Z,0.80
2022-11-24T16:46:21.613Z,0.70
2022-11-24T16:49:04.663Z,0.70
2022-11-24T16:51:47.759Z,0.80
2022-11-24T16:54:32.720Z,0.80
2022-11-24T16:57:16.573Z,2.53
2022-11-24T16:59:59.507Z,1.80
2022-11-24T17:02:42.535Z,6.38
2022-11-24T17:05:25.639Z,4.47
2022-11-24T17:08:09.377Z,1.80
2022-11-24T17:10:53.771Z,2.97
2022-11-24T17:13:36.806Z,2.05
2022-11-24T17:16:21.899Z,1.60
2022-11-24T17:19:05.535Z,1.70
2022-11-24T17:21:48.548Z,1.50
2022-11-24T17:24:31.601Z,1.70
2022-11-24T17:27:16.029Z,1.70
2022-11-24T17:29:59.171Z,1.80
2022-11-24T17:32:42.161Z,2.08
2022-11-24T17:35:25.146Z,4.55
2022-11-24T17:38:08.281Z,4.50
2022-11-24T17:40:51.237Z,4.38
2022-11-24T17:43:35.877Z,6.57
2022-11-24T17:46:20.635Z,5.32
2022-11-24T17:49:04.453Z,3.75
2022-11-24T17:51:50.534Z,2.43
2022-11-24T17:54:48.993Z,1.80
2022-11-24T17:57:31.985Z,1.70
2022-11-24T18:00:17.742Z,1.23
2022-11-24T18:03:01.446Z,1.70
2022-11-24T18:05:44.506Z,1.27
2022-11-24T18:08:27.850Z,1.17
2022-11-24T18:11:13.422Z,1.08
2022-11-24T18:14:00.592Z,1.00
2022-11-24T18:16:45.772Z,1.08
2022-11-24T18:19:28.745Z,1.50
2022-11-24T18:22:11.734Z,2.92
2022-11-24T18:24:54.729Z,3.88
2022-11-24T18:27:37.738Z,2.15
2022-11-24T18:30:21.244Z,2.10
2022-11-24T18:33:05.654Z,2.10
2022-11-24T18:35:56.801Z,1.92
2022-11-24T18:38:39.747Z,2.40
2022-11-24T18:41:22.764Z,2.00
2022-11-24T18:44:08.411Z,2.10
2022-11-24T18:46:51.634Z,1.90
2022-11-24T18:49:35.920Z,2.13
2022-11-24T18:52:18.868Z,2.30
2022-11-24T18:55:03.933Z,2.10
2022-11-24T18:57:46.943Z,2.08
2022-11-24T19:00:29.990Z,2.00
2022-11-24T19:03:13.032Z,2.60
2022-11-24T19:05:57.302Z,2.53
2022-11-24T19:08:40.291Z,2.15
2022-11-24T19:11:25.330Z,2.70
2022-11-24T19:14:10.465Z,2.22
2022-11-24T19:16:53.435Z,2.55
2022-11-24T19:19:36.489Z,1.92
2022-11-24T19:22:20.837Z,2.30
2022-11-24T19:25:03.803Z,2.05
2022-11-24T19:27:46.740Z,3.03
2022-11-24T19:30:30.285Z,3.50
2022-11-24T19:33:13.361Z,4.15
2022-11-24T19:36:03.556Z,3.47
2022-11-24T19:38:52.207Z,3.13
2022-11-24T19:41:35.471Z,2.60
2022-11-24T19:44:18.689Z,2.60
2022-11-24T19:47:01.665Z,2.33
2022-11-24T19:49:44.654Z,2.83
2022-11-24T19:52:27.624Z,2.30
2022-11-24T19:55:12.085Z,2.10
2022-11-24T19:57:55.264Z,2.05
2022-11-24T20:00:38.264Z,2.50
2022-11-24T20:03:21.231Z,2.70
2022-11-24T20:06:05.227Z,2.30
2022-11-24T20:08:48.255Z,2.00
2022-11-24T20:11:32.655Z,2.40
2022-11-24T20:14:18.909Z,2.70
2022-11-24T20:17:01.972Z,2.35
2022-11-24T20:19:45.035Z,2.53
2022-11-24T20:22:27.993Z,2.25
2022-11-24T20:25:11.578Z,1.90
2022-11-24T20:27:55.911Z,1.90
2022-11-24T20:30:38.935Z,1.88
2022-11-24T20:33:21.913Z,2.00
2022-11-24T20:36:06.235Z,1.45
2022-11-24T20:38:50.873Z,2.70
2022-11-24T20:44:21.379Z,1.65
2022-11-24T20:47:06.297Z,1.77
2022-11-24T20:49:49.282Z,1.30
2022-11-24T20:52:32.251Z,2.10
2022-11-24T20:55:15.321Z,1.35
2022-11-24T20:57:58.331Z,2.50
2022-11-24T21:00:42.659Z,1.50
2022-11-24T21:03:25.838Z,1.40
2022-11-24T21:06:10.037Z,1.35
2022-11-24T21:08:53.219Z,1.73
2022-11-24T21:11:36.821Z,1.50
2022-11-24T21:14:19.714Z,1.67
2022-11-24T21:17:04.029Z,1.80
2022-11-24T21:19:47.288Z,1.73
2022-11-24T21:22:30.449Z,1.73
2022-11-24T21:25:13.396Z,1.58
2022-11-24T21:27:56.356Z,1.42
2022-11-24T21:30:39.772Z,1.55
2022-11-24T21:33:24.636Z,1.90
2022-11-24T21:36:08.382Z,1.48
2022-11-24T21:38:52.684Z,1.60
2022-11-24T21:41:35.704Z,2.15
2022-11-24T21:44:18.711Z,0.93
2022-11-24T21:47:01.693Z,1.33
2022-11-24T21:49:45.990Z,1.17
2022-11-24T21:52:29.017Z,1.10
2022-11-24T21:55:11.993Z,1.10
2022-11-24T21:57:55.025Z,1.17
2022-11-24T22:00:37.971Z,1.15
2022-11-24T22:03:21.413Z,1.40
2022-11-24T22:06:06.477Z,1.20
2022-11-24T22:08:50.312Z,1.55
2022-11-24T22:11:33.223Z,6.73
2022-11-24T22:14:16.496Z,2.50
2022-11-24T22:16:59.418Z,1.42
2022-11-24T22:19:42.456Z,2.38
2022-11-24T22:22:26.849Z,1.70
2022-11-24T22:25:10.205Z,1.98
2022-11-24T22:27:53.194Z,1.42
2022-11-24T22:30:36.465Z,1.58
2022-11-24T22:33:19.454Z,1.50
2022-11-24T22:36:03.255Z,1.13
2022-11-24T22:38:48.196Z,1.10
2022-11-24T22:41:31.626Z,0.82
2022-11-24T22:44:14.617Z,1.35
2022-11-24T22:46:59.881Z,0.60
2022-11-24T22:49:42.946Z,1.42
2022-11-24T22:52:25.890Z,1.25
2022-11-24T22:55:10.497Z,1.30
2022-11-24T23:00:40.112Z,1.00
2022-11-24T23:03:23.108Z,1.75
2022-11-24T23:06:09.493Z,1.70
2022-11-24T23:08:53.518Z,1.52
2022-11-24T23:11:39.901Z,1.38
2022-11-24T23:14:22.803Z,1.30
2022-11-24T23:17:05.740Z,1.60
2022-11-24T23:19:48.926Z,1.67
2022-11-24T23:22:31.898Z,1.85
2022-11-24T23:25:14.914Z,2.20
2022-11-24T23:27:59.285Z,3.90
2022-11-24T23:30:42.232Z,6.53
2022-11-24T23:33:25.249Z,3.47
2022-11-24T23:36:10.643Z,2.80
2022-11-24T23:38:54.482Z,2.90
2022-11-24T23:41:37.522Z,2.45
2022-11-24T23:44:22.139Z,1.90
2022-11-24T23:49:47.894Z,1.40
2022-11-24T23:52:31.457Z,1.58
2022-11-24T23:55:14.461Z,1.95
2022-11-24T23:57:57.415Z,2.17
